createdAt,value
2018-01-13T00:02:13.864Z,34.10
2018-01-13T00:04:41.319Z,37.63
2018-01-13T00:07:08.778Z,39.10
2018-01-13T00:09:36.239Z,38.43
2018-01-13T00:12:03.708Z,36.10
2018-01-13T00:14:31.175Z,42.77
2018-01-13T00:16:58.647Z,37.90
2018-01-13T00:19:26.090Z,36.93
2018-01-13T00:21:53.576Z,34.60
2018-01-13T00:24:21.063Z,35.60
2018-01-13T00:26:48.535Z,33.30
2018-01-13T00:29:15.998Z,34.90
2018-01-13T00:31:43.446Z,34.57
2018-01-13T00:34:10.918Z,28.10
2018-01-13T00:36:38.395Z,28.50
2018-01-13T00:39:05.858Z,28.83
2018-01-13T00:41:33.302Z,34.00
2018-01-13T00:44:00.790Z,30.43
2018-01-13T00:46:28.268Z,28.30
2018-01-13T00:48:55.734Z,30.23
2018-01-13T00:51:23.187Z,30.80
2018-01-13T00:53:50.686Z,30.77
2018-01-13T00:56:18.156Z,32.33
2018-01-13T00:58:45.655Z,30.50
2018-01-13T01:01:13.122Z,29.20
2018-01-13T01:03:40.617Z,29.50
2018-01-13T01:06:08.127Z,28.70
2018-01-13T01:08:35.587Z,31.37
2018-01-13T01:11:03.064Z,37.57
2018-01-13T01:13:30.515Z,26.67
2018-01-13T01:15:58.006Z,35.83
2018-01-13T01:18:25.491Z,31.60
2018-01-13T01:20:52.948Z,38.63
2018-01-13T01:23:20.418Z,36.73
2018-01-13T01:25:47.876Z,38.67
2018-01-13T01:28:15.427Z,38.03
2018-01-13T01:30:42.888Z,38.50
2018-01-13T01:33:10.374Z,26.93
2018-01-13T01:35:37.846Z,38.80
2018-01-13T01:38:05.302Z,30.73
2018-01-13T01:40:32.816Z,29.60
2018-01-13T01:43:00.267Z,35.43
2018-01-13T01:45:27.750Z,33.03
2018-01-13T01:47:55.208Z,35.30
2018-01-13T01:50:22.698Z,38.90
2018-01-13T01:52:50.155Z,38.40
2018-01-13T01:55:17.622Z,38.17
2018-01-13T01:57:45.079Z,33.63
2018-01-13T02:00:12.559Z,36.37
2018-01-13T02:02:40.016Z,30.50
2018-01-13T02:05:07.494Z,40.67
2018-01-13T02:07:34.955Z,37.60
2018-01-13T02:10:02.420Z,32.70
2018-01-13T02:12:29.894Z,40.87
2018-01-13T02:14:57.406Z,37.90
2018-01-13T02:17:24.876Z,41.83
2018-01-13T02:19:52.323Z,37.40
2018-01-13T02:22:19.786Z,40.30
2018-01-13T02:24:47.313Z,29.53
2018-01-13T02:27:14.763Z,34.10
2018-01-13T02:29:42.233Z,31.93
2018-01-13T02:32:09.716Z,32.57
2018-01-13T02:34:37.215Z,35.00
2018-01-13T02:37:04.667Z,36.57
2018-01-13T02:39:32.130Z,33.07
2018-01-13T02:41:59.604Z,33.50
2018-01-13T02:44:27.173Z,44.17
2018-01-13T02:46:54.638Z,40.93
2018-01-13T02:49:22.091Z,41.87
2018-01-13T02:51:49.586Z,44.07
2018-01-13T02:54:17.039Z,36.87
2018-01-13T02:56:44.511Z,40.47
2018-01-13T02:59:11.967Z,42.90
2018-01-13T03:01:39.443Z,35.63
2018-01-13T03:04:06.904Z,35.43
2018-01-13T03:06:34.373Z,42.90
2018-01-13T03:09:01.844Z,42.03
2018-01-13T03:11:29.320Z,36.00
2018-01-13T03:13:56.786Z,38.10
2018-01-13T03:16:24.254Z,35.53
2018-01-13T03:18:51.711Z,42.93
2018-01-13T03:21:19.181Z,35.13
2018-01-13T03:23:46.643Z,35.33
2018-01-13T03:26:14.115Z,38.43
2018-01-13T03:28:41.564Z,39.60
2018-01-13T03:31:09.029Z,35.80
2018-01-13T03:33:36.486Z,35.33
2018-01-13T03:36:03.946Z,36.97
2018-01-13T03:38:31.497Z,41.53
2018-01-13T03:40:58.979Z,44.43
2018-01-13T03:43:26.437Z,46.67
2018-01-13T03:45:53.907Z,45.90
2018-01-13T03:48:21.379Z,51.60
2018-01-13T03:50:48.858Z,46.47
2018-01-13T03:53:16.332Z,50.87
2018-01-13T03:55:43.806Z,44.50
2018-01-13T03:58:11.278Z,44.00
2018-01-13T04:00:38.726Z,50.37
2018-01-13T04:03:06.205Z,51.57
2018-01-13T04:05:33.655Z,48.33
2018-01-13T04:08:01.118Z,54.60
2018-01-13T04:10:28.591Z,47.20
2018-01-13T04:12:56.063Z,50.00
2018-01-13T04:15:23.520Z,52.37
2018-01-13T04:17:51.003Z,52.43
2018-01-13T04:20:18.451Z,50.17
2018-01-13T04:22:45.943Z,50.33
2018-01-13T04:25:13.396Z,41.27
2018-01-13T04:27:40.887Z,46.10
2018-01-13T04:30:08.375Z,47.80
2018-01-13T04:32:35.839Z,53.60
2018-01-13T04:35:03.295Z,49.30
2018-01-13T04:37:30.773Z,55.47
2018-01-13T04:39:58.231Z,52.90
2018-01-13T04:42:25.694Z,57.90
2018-01-13T04:44:53.160Z,55.40
2018-01-13T04:47:20.630Z,53.20
2018-01-13T04:49:48.091Z,62.20
2018-01-13T04:52:15.561Z,55.70
2018-01-13T04:54:43.071Z,41.33
2018-01-13T04:57:10.558Z,51.63
2018-01-13T04:59:38.020Z,48.13
2018-01-13T05:02:05.504Z,42.97
2018-01-13T05:04:32.959Z,49.90
2018-01-13T05:07:00.420Z,52.53
2018-01-13T05:09:27.883Z,52.83
2018-01-13T05:11:55.353Z,46.87
2018-01-13T05:14:22.886Z,51.93
2018-01-13T05:16:50.344Z,47.80
2018-01-13T05:19:17.799Z,42.57
2018-01-13T05:21:45.270Z,49.03
2018-01-13T05:24:12.730Z,39.83
2018-01-13T05:26:40.183Z,40.40
2018-01-13T05:29:07.646Z,37.23
2018-01-13T05:31:35.096Z,45.67
2018-01-13T05:34:02.576Z,44.03
2018-01-13T05:36:30.028Z,51.33
2018-01-13T05:38:57.506Z,44.97
2018-01-13T05:41:24.977Z,49.60
2018-01-13T05:43:52.425Z,47.87
2018-01-13T05:46:19.946Z,48.27
2018-01-13T05:48:47.403Z,48.93
2018-01-13T05:51:14.870Z,50.77
2018-01-13T05:53:42.343Z,47.00
2018-01-13T05:56:09.805Z,42.83
2018-01-13T05:58:37.297Z,37.93
2018-01-13T06:01:04.759Z,47.70
2018-01-13T06:03:32.222Z,44.87
2018-01-13T06:05:59.667Z,46.73
2018-01-13T06:08:27.130Z,46.87
2018-01-13T06:10:54.587Z,45.70
2018-01-13T06:13:22.051Z,40.17
2018-01-13T06:15:49.524Z,44.17
2018-01-13T06:18:16.996Z,50.87
2018-01-13T06:20:44.473Z,47.07
2018-01-13T06:23:11.919Z,48.87
2018-01-13T06:25:39.386Z,42.00
2018-01-13T06:28:06.839Z,37.90
2018-01-13T06:30:34.327Z,39.27
2018-01-13T06:33:01.970Z,42.03
2018-01-13T06:35:29.438Z,37.13
2018-01-13T06:37:56.899Z,31.87
2018-01-13T06:40:24.382Z,37.90
2018-01-13T06:42:52.007Z,34.33
2018-01-13T06:45:19.467Z,45.73
2018-01-13T06:47:46.943Z,34.37
2018-01-13T06:50:14.403Z,37.33
2018-01-13T06:52:41.862Z,40.60
2018-01-13T06:55:09.366Z,33.20
2018-01-13T06:57:36.820Z,41.90
2018-01-13T07:00:04.302Z,36.17
2018-01-13T07:02:31.770Z,39.77
2018-01-13T07:04:59.238Z,45.97
2018-01-13T07:07:26.704Z,38.93
2018-01-13T07:09:54.155Z,32.50
2018-01-13T07:12:21.623Z,37.60
2018-01-13T07:14:49.106Z,35.03
2018-01-13T07:17:16.577Z,32.20
2018-01-13T07:19:44.042Z,32.27
2018-01-13T07:22:11.516Z,31.37
2018-01-13T07:24:38.971Z,30.03
2018-01-13T07:27:06.521Z,31.17
2018-01-13T07:29:33.983Z,29.23
2018-01-13T07:32:01.446Z,29.90
2018-01-13T07:34:28.919Z,28.50
2018-01-13T07:36:56.386Z,30.00
2018-01-13T07:39:23.861Z,29.57
2018-01-13T07:41:51.338Z,32.17
2018-01-13T07:44:18.783Z,34.53
2018-01-13T07:46:46.244Z,30.47
2018-01-13T07:49:13.714Z,30.23
2018-01-13T07:51:41.158Z,33.00
2018-01-13T07:54:08.647Z,33.10
2018-01-13T07:56:36.100Z,32.47
2018-01-13T07:59:03.582Z,31.90
2018-01-13T08:01:31.030Z,28.93
2018-01-13T08:03:58.500Z,28.43
2018-01-13T08:06:25.975Z,25.50
2018-01-13T08:08:53.446Z,27.00
2018-01-13T08:11:21.034Z,31.00
2018-01-13T08:13:48.491Z,28.50
2018-01-13T08:16:15.967Z,31.33
2018-01-13T08:18:43.426Z,38.03
2018-01-13T08:21:10.895Z,31.53
2018-01-13T08:23:38.338Z,32.20
2018-01-13T08:26:05.817Z,28.30
2018-01-13T08:28:33.285Z,31.37
2018-01-13T08:31:00.751Z,29.33
2018-01-13T08:33:28.513Z,30.20
2018-01-13T08:35:55.959Z,28.67
2018-01-13T08:38:23.452Z,24.00
2018-01-13T08:40:51.068Z,30.77
2018-01-13T08:43:18.545Z,31.70
2018-01-13T08:45:46.003Z,30.40
2018-01-13T08:48:13.485Z,27.67
2018-01-13T08:50:40.957Z,29.77
2018-01-13T08:53:08.430Z,29.20
2018-01-13T08:55:35.909Z,28.67
2018-01-13T08:58:03.366Z,30.43
2018-01-13T09:00:30.841Z,29.77
2018-01-13T09:02:58.292Z,35.03
2018-01-13T09:05:25.777Z,27.03
2018-01-13T09:07:53.335Z,31.53
2018-01-13T09:10:20.803Z,32.83
2018-01-13T09:12:48.283Z,30.87
2018-01-13T09:15:15.740Z,30.97
2018-01-13T09:17:43.211Z,31.97
2018-01-13T09:20:10.700Z,33.87
2018-01-13T09:22:38.166Z,31.20
2018-01-13T09:25:05.629Z,32.13
2018-01-13T09:27:33.110Z,32.17
2018-01-13T09:30:00.567Z,32.27
2018-01-13T09:32:28.042Z,32.90
2018-01-13T09:34:55.511Z,30.30
2018-01-13T09:37:22.966Z,28.20
2018-01-13T09:39:50.457Z,32.53
2018-01-13T09:42:17.915Z,40.90
2018-01-13T09:44:45.383Z,34.30
2018-01-13T09:47:12.830Z,33.60
2018-01-13T09:49:40.294Z,38.80
2018-01-13T09:52:07.751Z,39.43
2018-01-13T09:54:35.271Z,38.13
2018-01-13T09:57:02.715Z,39.97
2018-01-13T09:59:30.174Z,37.40
2018-01-13T10:01:57.643Z,41.23
2018-01-13T10:04:25.150Z,31.27
2018-01-13T10:06:52.616Z,32.20
2018-01-13T10:09:20.078Z,33.70
2018-01-13T10:11:47.547Z,41.50
2018-01-13T10:14:15.036Z,38.63
2018-01-13T10:16:42.512Z,37.70
2018-01-13T10:19:09.972Z,32.67
2018-01-13T10:21:37.442Z,34.40
2018-01-13T10:24:04.930Z,29.80
2018-01-13T10:26:32.378Z,35.00
2018-01-13T10:28:59.873Z,38.63
2018-01-13T10:31:27.341Z,37.13
2018-01-13T10:33:54.808Z,38.10
2018-01-13T10:36:22.255Z,40.37
2018-01-13T10:38:49.721Z,38.00
2018-01-13T10:41:17.207Z,29.33
2018-01-13T10:43:44.675Z,33.10
2018-01-13T10:46:12.144Z,31.67
2018-01-13T10:48:39.623Z,37.60
2018-01-13T10:51:07.085Z,32.57
2018-01-13T10:53:35.456Z,32.47
2018-01-13T10:56:02.927Z,35.77
2018-01-13T10:58:30.394Z,37.63
2018-01-13T11:00:57.848Z,43.20
2018-01-13T11:03:25.329Z,45.87
2018-01-13T11:05:52.787Z,40.20
2018-01-13T11:08:20.255Z,34.33
2018-01-13T11:10:47.706Z,33.63
2018-01-13T11:13:15.178Z,32.37
2018-01-13T11:15:42.636Z,30.50
2018-01-13T11:18:10.097Z,29.80
2018-01-13T11:20:37.570Z,32.38
2018-01-13T11:23:05.030Z,35.30
2018-01-13T11:25:32.498Z,35.10
2018-01-13T11:27:59.948Z,37.13
2018-01-13T11:30:27.449Z,35.70
2018-01-13T11:32:54.901Z,26.67
2018-01-13T11:35:22.405Z,30.80
2018-01-13T11:37:49.969Z,32.60
2018-01-13T11:40:17.458Z,30.73
2018-01-13T11:42:44.928Z,33.50
2018-01-13T11:45:12.419Z,36.53
2018-01-13T11:47:39.866Z,30.00
2018-01-13T11:50:07.387Z,31.87
2018-01-13T11:52:34.839Z,34.17
2018-01-13T11:55:02.313Z,27.80
2018-01-13T11:57:29.779Z,28.33
2018-01-13T11:59:57.876Z,31.40
2018-01-13T12:02:25.324Z,26.40
2018-01-13T12:04:52.803Z,33.37
2018-01-13T12:07:20.290Z,26.53
2018-01-13T12:09:47.908Z,26.63
2018-01-13T12:12:15.354Z,28.43
2018-01-13T12:14:42.824Z,29.00
2018-01-13T12:17:10.280Z,27.57
2018-01-13T12:19:38.439Z,30.90
2018-01-13T12:22:05.895Z,35.50
2018-01-13T12:24:33.378Z,32.00
2018-01-13T12:27:00.838Z,53.37
2018-01-13T12:29:28.339Z,45.90
2018-01-13T12:31:55.794Z,33.93
2018-01-13T12:34:23.305Z,22.80
2018-01-13T12:36:50.760Z,25.60
2018-01-13T12:39:18.298Z,31.20
2018-01-13T12:41:45.864Z,27.23
2018-01-13T12:44:13.359Z,31.63
2018-01-13T12:46:40.873Z,28.83
2018-01-13T12:49:08.370Z,24.30
2018-01-13T12:51:35.838Z,26.33
2018-01-13T12:54:03.295Z,33.87
2018-01-13T12:56:30.762Z,28.60
2018-01-13T12:58:58.235Z,30.17
2018-01-13T13:01:25.721Z,27.33
2018-01-13T13:03:53.218Z,29.20
2018-01-13T13:06:20.675Z,34.13
2018-01-13T13:08:48.144Z,29.17
2018-01-13T13:11:15.609Z,30.90
2018-01-13T13:13:43.084Z,29.40
2018-01-13T13:16:10.548Z,29.00
2018-01-13T13:18:38.051Z,27.27
2018-01-13T13:21:05.498Z,29.70
2018-01-13T13:23:33.023Z,30.60
2018-01-13T13:26:00.479Z,28.83
2018-01-13T13:28:27.956Z,29.90
2018-01-13T13:30:55.442Z,31.33
2018-01-13T13:33:23.157Z,30.10
2018-01-13T13:35:50.681Z,31.00
2018-01-13T13:38:18.137Z,39.20
2018-01-13T13:40:45.627Z,36.83
2018-01-13T13:43:13.181Z,44.90
2018-01-13T13:45:40.682Z,32.83
2018-01-13T13:48:08.155Z,27.40
2018-01-13T13:50:35.603Z,31.40
2018-01-13T13:53:03.071Z,29.57
2018-01-13T13:55:30.522Z,30.40
2018-01-13T13:57:57.996Z,31.20
2018-01-13T14:00:25.455Z,34.50
2018-01-13T14:02:52.960Z,35.20
2018-01-13T14:05:20.474Z,26.93
2018-01-13T14:07:47.898Z,33.37
2018-01-13T14:10:15.368Z,37.40
2018-01-13T14:12:42.825Z,43.67
2018-01-13T14:15:10.377Z,37.70
2018-01-13T14:17:37.816Z,33.60
2018-01-13T14:20:05.286Z,28.07
2018-01-13T14:22:32.778Z,28.70
2018-01-13T14:25:00.234Z,32.03
2018-01-13T14:27:27.726Z,27.90
2018-01-13T14:29:55.218Z,34.40
2018-01-13T14:32:22.690Z,29.33
2018-01-13T14:34:50.170Z,31.43
2018-01-13T14:37:17.652Z,29.07
2018-01-13T14:39:45.195Z,35.10
2018-01-13T14:42:12.666Z,36.13
2018-01-13T14:44:40.129Z,33.67
2018-01-13T14:47:07.618Z,33.60
2018-01-13T14:49:35.193Z,26.47
2018-01-13T14:52:02.604Z,31.80
2018-01-13T14:54:30.091Z,30.73
2018-01-13T14:56:57.567Z,28.30
2018-01-13T14:59:25.072Z,38.87
2018-01-13T15:01:52.566Z,34.83
2018-01-13T15:04:20.022Z,38.47
2018-01-13T15:06:47.495Z,32.70
2018-01-13T15:09:14.949Z,39.07
2018-01-13T15:11:42.441Z,42.10
2018-01-13T15:14:09.890Z,46.63
2018-01-13T15:16:37.432Z,59.93
2018-01-13T15:19:04.917Z,48.13
2018-01-13T15:21:32.382Z,38.50
2018-01-13T15:23:59.847Z,38.57
2018-01-13T15:26:27.309Z,39.80
2018-01-13T15:28:54.763Z,38.90
2018-01-13T15:31:22.224Z,31.70
2018-01-13T15:33:49.669Z,39.50
2018-01-13T15:36:17.144Z,30.60
2018-01-13T15:38:44.654Z,35.63
2018-01-13T15:41:12.134Z,35.57
2018-01-13T15:43:39.633Z,32.57
2018-01-13T15:46:07.079Z,40.33
2018-01-13T15:48:34.537Z,37.20
2018-01-13T15:51:01.999Z,41.03
2018-01-13T15:53:29.481Z,39.83
2018-01-13T15:55:56.937Z,35.37
2018-01-13T15:58:24.413Z,43.90
2018-01-13T16:00:51.889Z,48.87
2018-01-13T16:03:19.342Z,36.50
2018-01-13T16:05:46.804Z,41.37
2018-01-13T16:08:14.321Z,39.60
2018-01-13T16:10:41.780Z,42.87
2018-01-13T16:13:09.236Z,40.40
2018-01-13T16:15:36.720Z,38.60
2018-01-13T16:18:04.167Z,38.40
2018-01-13T16:20:31.640Z,42.80
2018-01-13T16:22:59.118Z,40.40
2018-01-13T16:25:26.565Z,43.00
2018-01-13T16:27:54.056Z,40.83
2018-01-13T16:30:21.513Z,42.80
2018-01-13T16:32:48.974Z,43.13
2018-01-13T16:35:16.423Z,43.50
2018-01-13T16:37:43.911Z,41.37
2018-01-13T16:40:11.391Z,46.83
2018-01-13T16:42:38.857Z,42.57
2018-01-13T16:45:06.332Z,38.40
2018-01-13T16:47:33.789Z,34.70
2018-01-13T16:50:01.267Z,40.70
2018-01-13T16:52:28.734Z,34.27
2018-01-13T16:54:56.197Z,38.93
2018-01-13T16:57:23.698Z,31.87
2018-01-13T16:59:51.193Z,42.33
2018-01-13T17:02:18.664Z,41.50
2018-01-13T17:04:46.153Z,50.77
2018-01-13T17:07:13.602Z,42.67
2018-01-13T17:09:41.091Z,40.70
2018-01-13T17:12:08.551Z,31.30
2018-01-13T17:14:36.018Z,33.57
2018-01-13T17:17:03.483Z,34.87
2018-01-13T17:19:31.467Z,40.10
2018-01-13T17:21:58.950Z,35.67
2018-01-13T17:24:26.450Z,35.83
2018-01-13T17:26:53.909Z,36.90
2018-01-13T17:29:21.474Z,36.10
2018-01-13T17:31:48.948Z,33.40
2018-01-13T17:34:16.456Z,29.83
2018-01-13T17:36:43.943Z,41.60
2018-01-13T17:39:11.409Z,33.00
2018-01-13T17:41:38.875Z,41.63
2018-01-13T17:44:06.342Z,34.30
2018-01-13T17:46:33.818Z,33.57
2018-01-13T17:49:01.305Z,36.07
2018-01-13T17:51:28.772Z,38.30
2018-01-13T17:53:56.334Z,39.47
2018-01-13T17:56:23.794Z,35.93
2018-01-13T17:58:51.270Z,38.67
2018-01-13T18:01:18.765Z,38.77
2018-01-13T18:03:46.270Z,55.83
2018-01-13T18:06:13.767Z,43.03
2018-01-13T18:08:41.265Z,36.80
2018-01-13T18:11:08.746Z,31.10
2018-01-13T18:13:36.253Z,55.10
2018-01-13T18:16:03.735Z,43.47
2018-01-13T18:18:31.388Z,37.27
2018-01-13T18:20:58.848Z,35.77
2018-01-13T18:23:26.319Z,38.87
2018-01-13T18:25:53.803Z,34.40
2018-01-13T18:28:21.286Z,40.47
2018-01-13T18:30:48.769Z,32.97
2018-01-13T18:33:16.239Z,32.20
2018-01-13T18:35:43.690Z,31.63
2018-01-13T18:38:11.154Z,37.30
2018-01-13T18:40:38.598Z,44.33
2018-01-13T18:43:06.067Z,32.20
2018-01-13T18:45:33.551Z,29.00
2018-01-13T18:48:01.011Z,36.10
2018-01-13T18:50:28.485Z,37.60
2018-01-13T18:52:55.955Z,38.03
2018-01-13T18:55:23.493Z,39.17
2018-01-13T18:57:51.007Z,33.40
2018-01-13T19:00:18.553Z,36.53
2018-01-13T19:02:46.031Z,34.83
2018-01-13T19:05:13.478Z,36.30
2018-01-13T19:07:40.951Z,36.93
2018-01-13T19:10:08.401Z,37.70
2018-01-13T19:12:35.872Z,28.43
2018-01-13T19:15:03.410Z,36.33
2018-01-13T19:17:30.904Z,29.33
2018-01-13T19:19:58.379Z,30.77
2018-01-13T19:22:25.828Z,31.07
2018-01-13T19:24:53.307Z,34.37
2018-01-13T19:27:20.755Z,28.70
2018-01-13T19:29:48.223Z,30.37
2018-01-13T19:32:15.679Z,34.73
2018-01-13T19:34:43.231Z,30.23
2018-01-13T19:37:10.754Z,30.47
2018-01-13T19:39:38.244Z,34.30
2018-01-13T19:42:05.734Z,34.47
2018-01-13T19:44:33.187Z,24.17
2018-01-13T19:47:00.661Z,29.77
2018-01-13T19:49:28.126Z,31.97
2018-01-13T19:51:55.598Z,31.70
2018-01-13T19:54:23.043Z,30.43
2018-01-13T19:56:50.521Z,30.83
2018-01-13T19:59:17.979Z,26.10
2018-01-13T20:01:45.479Z,24.73
2018-01-13T20:04:12.939Z,29.53
2018-01-13T20:06:40.408Z,28.63
2018-01-13T20:09:07.867Z,27.90
2018-01-13T20:11:35.538Z,27.03
2018-01-13T20:14:03.014Z,28.10
2018-01-13T20:16:30.517Z,32.93
2018-01-13T20:18:57.978Z,32.53
2018-01-13T20:21:25.451Z,29.73
2018-01-13T20:23:52.904Z,25.00
2018-01-13T20:26:20.375Z,21.50
2018-01-13T20:28:47.865Z,22.60
2018-01-13T20:31:15.394Z,22.77
2018-01-13T20:33:42.863Z,23.03
2018-01-13T20:36:10.408Z,19.57
2018-01-13T20:38:37.886Z,25.00
2018-01-13T20:41:05.342Z,24.57
2018-01-13T20:43:32.827Z,29.60
2018-01-13T20:46:00.299Z,24.70
2018-01-13T20:48:27.774Z,23.10
2018-01-13T20:50:55.238Z,29.80
2018-01-13T20:53:22.690Z,28.33
2018-01-13T20:55:50.157Z,22.37
2018-01-13T20:58:17.611Z,23.57
2018-01-13T21:00:45.094Z,22.80
2018-01-13T21:03:12.572Z,23.53
2018-01-13T21:05:40.094Z,26.73
2018-01-13T21:08:07.563Z,23.13
2018-01-13T21:10:35.051Z,26.90
2018-01-13T21:13:02.495Z,24.07
2018-01-13T21:15:29.955Z,29.20
2018-01-13T21:17:57.398Z,31.03
2018-01-13T21:20:24.875Z,27.50
2018-01-13T21:22:52.354Z,27.03
2018-01-13T21:25:19.823Z,22.83
2018-01-13T21:27:47.277Z,27.07
2018-01-13T21:30:14.740Z,21.83
2018-01-13T21:32:42.217Z,27.10
2018-01-13T21:35:09.685Z,29.53
2018-01-13T21:37:37.135Z,25.03
2018-01-13T21:40:04.684Z,24.20
2018-01-13T21:42:32.235Z,26.30
2018-01-13T21:44:59.730Z,21.30
2018-01-13T21:47:27.186Z,24.27
2018-01-13T21:49:54.660Z,28.00
2018-01-13T21:52:22.119Z,31.83
2018-01-13T21:54:49.631Z,23.07
2018-01-13T21:57:17.121Z,25.77
2018-01-13T21:59:44.589Z,33.60
2018-01-13T22:02:12.060Z,24.00
2018-01-13T22:04:39.543Z,23.20
2018-01-13T22:07:07.012Z,21.70
2018-01-13T22:09:34.522Z,24.97
2018-01-13T22:12:02.013Z,25.27
2018-01-13T22:14:29.474Z,28.70
2018-01-13T22:16:56.942Z,27.40
2018-01-13T22:19:24.412Z,22.80
2018-01-13T22:21:51.899Z,27.73
2018-01-13T22:24:19.371Z,24.83
2018-01-13T22:26:46.835Z,26.60
2018-01-13T22:29:14.335Z,27.23
2018-01-13T22:31:41.794Z,27.47
2018-01-13T22:34:09.751Z,24.27
2018-01-13T22:36:37.206Z,30.60
2018-01-13T22:39:04.663Z,18.70
2018-01-13T22:41:32.121Z,25.97
2018-01-13T22:43:59.614Z,31.80
2018-01-13T22:46:27.082Z,25.93
2018-01-13T22:48:54.567Z,25.93
2018-01-13T22:51:22.014Z,23.00
2018-01-13T22:53:49.482Z,31.27
2018-01-13T22:56:16.930Z,29.80
2018-01-13T22:58:44.406Z,23.10
2018-01-13T23:01:11.871Z,24.40
2018-01-13T23:03:39.356Z,25.33
2018-01-13T23:06:06.818Z,30.70
2018-01-13T23:08:34.285Z,26.47
2018-01-13T23:11:01.766Z,25.10
2018-01-13T23:13:29.233Z,23.73
2018-01-13T23:15:56.678Z,20.90
2018-01-13T23:18:24.240Z,22.50
2018-01-13T23:20:51.719Z,27.67
2018-01-13T23:23:19.168Z,22.23
2018-01-13T23:25:46.635Z,25.20
2018-01-13T23:28:14.184Z,22.40
2018-01-13T23:30:41.666Z,30.20
2018-01-13T23:33:09.123Z,24.60
2018-01-13T23:35:36.591Z,24.20
2018-01-13T23:38:04.055Z,20.80
2018-01-13T23:40:31.525Z,22.87
2018-01-13T23:42:58.979Z,20.33
2018-01-13T23:45:26.460Z,26.23
2018-01-13T23:47:53.911Z,23.90
2018-01-13T23:50:21.403Z,20.67
2018-01-13T23:52:48.849Z,26.27
2018-01-13T23:55:16.313Z,17.83
2018-01-13T23:57:43.790Z,19.43
